Latest Weather Observations for Lucas Heights (ANSTO)

IDN60901

Issued at 6:31 am EST Friday 26 April 2019 (issued every 10 minutes, with the page automatically refreshed every 10 minutes)

About weather observations | Map of Sydney area stations | Latest observations for Sydney area | Other Formats
Station Details ID: 066023 Name: LUCAS HEIGHTS (ANSTO) Lat: -34.05 Lon: 150.98 Height: 140.0 m
Data from the previous 72 hours. | See also: Recent months for locations in New South Wales
Date/Time
EST
Temp
°C
App
Temp
°C
Dew
Point
°C
Rel
Hum
%
Delta-T
°C
Wind Press
QNH
hPa
Press
MSL
hPa
Rain since
9am
mm
Dir  Spd
km/h
Gust
km/h
Spd
kts
Gust
kts
26/06:15am 17.6 15.7 15.2 86 1.4 WSW 19 20 10 11 1014.9 - 0.0
26/06:00am 17.4 15.3 15.3 87 1.2 WSW 20 22 11 12 1014.7 - 0.0
26/05:45am 17.7 16.4 15.8 89 1.1 W 17 20 9 11 1014.6 - 0.0
26/05:30am 17.8 16.6 16.0 89 1.1 W 17 20 9 11 1014.4 - 0.0
26/05:15am 17.7 17.2 16.0 90 1.0 W 13 17 7 9 1014.3 - 0.0
26/05:00am 17.1 16.7 15.3 89 1.1 WNW 11 15 6 8 1014.2 - 0.0
26/04:45am 17.4 17.5 15.4 88 1.2 W 9 13 5 7 1014.2 - 0.0
26/04:30am 17.9 17.4 16.0 89 1.1 W 13 19 7 10 1014.3 - 0.0
26/04:15am 17.8 16.6 16.0 89 1.1 W 17 19 9 10 1014.5 - 0.0
26/04:00am 18.0 17.3 16.3 90 1.0 W 15 19 8 10 1014.6 - 0.0
26/03:45am 18.1 17.4 16.5 90 1.0 W 15 19 8 10 1014.7 - 0.0
26/03:30am 18.1 17.0 16.4 90 1.0 W 17 19 9 10 1014.8 - 0.0
26/03:15am 18.4 17.5 16.8 90 1.0 W 17 20 9 11 1014.9 - 0.0
26/03:00am 18.5 17.7 17.0 91 0.9 W 17 20 9 11 1015.1 - 0.0
26/02:45am 18.4 18.4 17.1 92 0.8 W 13 19 7 10 1015.3 - 0.0
26/02:30am 18.4 18.0 17.1 92 0.8 W 15 19 8 10 1015.5 - 0.0
26/02:15am 18.2 17.8 17.1 93 0.7 W 15 17 8 9 1015.5 - 0.0
26/02:00am 17.2 16.8 16.1 93 0.7 WSW 13 15 7 8 1015.7 - 0.0
26/01:45am 16.3 15.9 15.1 93 0.7 WSW 11 13 6 7 1015.8 - 0.0
26/01:30am 16.7 16.8 15.5 93 0.7 WSW 9 11 5 6 1016.0 - 0.0
26/01:15am 16.5 16.5 15.2 92 0.8 W 9 13 5 7 1016.1 - 0.0
26/01:00am 17.5 17.9 16.3 93 0.7 W 9 11 5 6 1016.2 - 0.0
26/12:45am 17.7 18.2 16.6 93 0.7 W 9 11 5 6 1016.4 - 0.0
26/12:30am 16.6 16.7 15.4 93 0.7 W 9 11 5 6 1016.5 - 0.0
26/12:15am 16.5 16.5 15.1 91 0.8 WSW 9 11 5 6 1016.6 - 0.0
26/12:00am 16.8 17.3 15.5 92 0.8 W 7 11 4 6 1016.7 - 0.0
 
Date/Time
EST
Temp
°C
App
Temp
°C
Dew
Point
°C
Rel
Hum
%
Delta-T
°C
Wind Press
QNH
hPa
Press
MSL
hPa
Rain since
9am
mm
Dir  Spd
km/h
Gust
km/h
Spd
kts
Gust
kts
25/11:45pm 17.3 17.6 16.0 92 0.8 W 9 11 5 6 1016.8 - 0.0
25/11:30pm 17.0 17.2 15.8 93 0.7 WNW 9 11 5 6 1016.9 - 0.0
25/11:15pm 17.0 17.6 15.7 92 0.8 NW 7 9 4 5 1016.9 - 0.0
25/11:00pm 17.0 17.7 15.7 92 0.8 NNW 6 9 3 5 1017.1 - 0.0
25/10:45pm 16.9 18.0 15.6 92 0.8 N 4 6 2 3 1017.2 - 0.0
25/10:30pm 17.1 17.9 15.8 92 0.8 N 6 7 3 4 1017.2 - 0.0
25/10:15pm 17.1 18.2 15.7 91 0.8 NNE 4 6 2 3 1017.4 - 0.0
25/10:00pm 17.3 18.9 16.0 92 0.8 N 2 6 1 3 1017.5 - 0.0
25/09:45pm 17.5 19.1 16.0 91 0.9 NNE 2 4 1 2 1017.6 - 0.0
25/09:30pm 17.6 19.3 16.1 91 0.9 ENE 2 4 1 2 1017.7 - 0.0
25/09:15pm 18.1 20.0 16.6 91 0.9 E 2 4 1 2 1017.7 - 0.0
25/09:00pm 18.2 19.7 16.6 90 1.0 E 4 6 2 3 1017.7 - 0.0
25/08:45pm 18.3 19.8 16.6 90 1.0 E 4 6 2 3 1017.6 - 0.0
25/08:30pm 18.5 19.7 16.8 90 1.0 ENE 6 7 3 4 1017.6 - 0.0
25/08:15pm 18.6 19.8 16.9 90 1.0 E 6 7 3 4 1017.5 - 0.0
25/08:00pm 18.7 19.7 16.9 89 1.1 E 7 9 4 5 1017.5 - 0.0
25/07:45pm 18.7 19.7 16.8 89 1.2 E 7 9 4 5 1017.6 - 0.0
25/07:30pm 19.0 20.3 17.0 88 1.2 E 6 7 3 4 1017.6 - 0.0
25/07:15pm 19.1 20.4 17.0 88 1.3 E 6 7 3 4 1017.6 - 0.0
25/07:00pm 19.2 20.2 16.9 86 1.4 E 7 7 4 4 1017.5 - 0.0
25/06:45pm 19.4 20.5 17.0 86 1.5 E 7 11 4 6 1017.3 - 0.0
25/06:30pm 19.5 20.1 16.9 85 1.6 E 9 13 5 7 1017.3 - 0.0
25/06:15pm 19.7 20.3 16.8 83 1.8 E 9 15 5 8 1017.2 - 0.0
25/06:00pm 19.9 20.5 16.8 82 1.9 E 9 15 5 8 1017.2 - 0.0
25/05:45pm 20.3 20.5 16.8 80 2.1 E 11 17 6 9 1017.1 - 0.0
25/05:30pm 20.6 20.7 16.5 77 2.5 E 11 17 6 9 1017.1 - 0.0
25/05:15pm 21.0 21.2 16.7 76 2.6 E 11 17 6 9 1017.0 - 0.0
25/05:00pm 21.4 21.4 17.1 76 2.6 E 13 20 7 11 1016.9 - 0.0
25/04:45pm 21.9 22.4 17.5 76 2.7 E 11 17 6 9 1016.9 - 0.0
25/04:30pm 22.3 22.9 17.8 75 2.8 E 11 19 6 10 1016.9 - 0.0
25/04:15pm 22.8 23.1 18.0 74 3.0 E 13 19 7 10 1016.9 - 0.0
25/04:00pm 23.4 24.2 18.2 72 3.3 ESE 11 17 6 9 1016.9 - 0.0
25/03:45pm 24.0 24.8 18.2 70 3.7 E 11 17 6 9 1016.8 - 0.0
25/03:30pm 24.4 25.7 18.4 69 3.8 E 9 15 5 8 1016.9 - 0.0
25/03:15pm 24.3 25.2 18.4 69 3.7 E 11 19 6 10 1016.9 - 0.0
25/03:00pm 24.6 25.1 18.4 68 3.9 ESE 13 19 7 10 1017.0 - 0.0
25/02:45pm 25.4 25.9 18.4 65 4.5 E 13 19 7 10 1017.0 - 0.0
25/02:30pm 25.9 27.3 18.6 64 4.7 E 9 15 5 8 1017.1 - 0.0
25/02:15pm 25.8 27.2 18.7 65 4.5 E 9 15 5 8 1017.2 - 0.0
25/02:00pm 25.4 26.2 18.2 64 4.6 E 11 17 6 9 1017.3 - 0.0
25/01:45pm 26.0 26.6 17.8 60 5.2 ENE 11 17 6 9 1017.4 - 0.0
25/01:30pm 26.1 26.1 16.2 54 6.1 ENE 11 17 6 9 1017.6 - 0.0
25/01:15pm 26.1 26.6 15.5 52 6.5 NE 7 13 4 7 1017.9 - 0.0
25/01:00pm 26.4 26.9 15.5 51 6.7 NE 7 15 4 8 1018.0 - 0.0
25/12:45pm 26.5 26.5 15.3 50 6.8 NNE 9 15 5 8 1018.3 - 0.0
25/12:30pm 26.6 27.0 15.4 50 6.8 NE 7 15 4 8 1018.6 - 0.0
25/12:15pm 26.4 26.9 15.6 51 6.6 - 7 15 4 8 1018.8 - 0.0
25/12:00pm 26.3 27.4 15.5 51 6.6 NE 4 9 2 5 1019.1 - 0.0
25/11:45am 26.0 27.1 15.5 52 6.4 ENE 4 7 2 4 1019.3 - 0.0
25/11:30am 25.7 26.3 15.4 53 6.3 NE 6 11 3 6 1019.5 - 0.0
25/11:15am 25.4 26.3 15.2 53 6.2 W 4 9 2 5 1019.6 - 0.0
25/11:00am 25.2 26.2 15.3 54 6.0 WSW 4 7 2 4 1019.8 - 0.0
25/10:45am 24.8 25.2 15.4 56 5.7 SW 7 11 4 6 1019.8 - 0.0
25/10:30am 23.9 24.2 15.1 58 5.3 WSW 7 11 4 6 1019.8 - 0.0
25/10:15am 23.4 23.7 15.1 59 5.0 W 7 13 4 7 1020.0 - 0.0
25/10:00am 23.0 23.0 15.3 62 4.6 WSW 9 13 5 7 1020.1 - 0.0
25/09:45am 22.0 21.6 15.2 65 4.1 WSW 11 15 6 8 1020.2 - 0.0
25/09:30am 21.2 20.4 15.1 68 3.6 WSW 13 19 7 10 1020.3 - 0.0
25/09:15am 20.5 19.2 14.9 70 3.3 WSW 15 20 8 11 1020.4 - 0.0
25/09:00am 20.2 19.8 15.2 73 3.0 WSW 11 19 6 10 1020.5 - 0.0
25/08:45am 19.7 18.9 15.0 74 2.8 W 13 19 7 10 1020.6 - 0.0
25/08:30am 19.1 17.8 14.7 75 2.6 WSW 15 20 8 11 1020.6 - 0.0
25/08:15am 19.1 17.9 15.0 77 2.4 WSW 15 20 8 11 1020.6 - 0.0
25/08:00am 18.8 17.6 15.0 78 2.2 WSW 15 20 8 11 1020.7 - 0.0
25/07:45am 18.1 17.7 15.1 82 1.8 SW 11 13 6 7 1020.6 - 0.0
25/07:30am 17.4 16.8 14.6 83 1.6 SW 11 15 6 8 1020.5 - 0.0
25/07:15am 16.9 15.4 14.3 85 1.5 WSW 15 19 8 10 1020.3 - 0.0
25/07:00am 17.1 15.3 14.4 84 1.6 WSW 17 20 9 11 1020.2 - 0.0
25/06:45am 17.3 15.7 14.9 86 1.4 WSW 17 20 9 11 1020.2 - 0.0
25/06:30am 17.1 15.2 15.2 88 1.1 WSW 19 20 10 11 1020.1 - 0.0
25/06:15am 16.4 14.3 14.8 90 0.9 WSW 19 20 10 11 1020.0 - 0.0
25/06:00am 15.6 13.3 14.2 91 0.8 WSW 19 20 10 11 1019.9 - 0.0
25/05:45am 15.2 12.7 13.5 89 1.0 WSW 19 19 10 10 1019.8 - 0.0
25/05:30am 15.9 14.0 14.3 90 0.9 WSW 17 19 9 10 1019.7 - 0.0
25/05:15am 15.9 15.3 14.5 91 0.8 WSW 11 15 6 8 1019.8 - 0.0
25/05:00am 15.5 15.1 14.0 91 0.9 W 9 11 5 6 1019.7 - 0.0
25/04:45am 14.8 14.5 13.2 90 0.9 W 7 7 4 4 1019.6 - 0.0
25/04:30am 15.1 14.5 13.4 89 1.0 W 9 11 5 6 1019.5 - 0.0
25/04:15am 15.0 14.3 13.3 89 1.0 W 9 11 5 6 1019.5 - 0.0
25/04:00am 14.9 14.5 13.0 88 1.1 W 7 9 4 5 1019.6 - 0.0
25/03:45am 15.5 15.1 13.1 85 1.3 W 7 11 4 6 1019.6 - 0.0
25/03:30am 17.1 16.6 14.9 87 1.3 W 11 13 6 7 1019.5 - 0.0
25/03:15am 16.5 15.9 14.5 88 1.2 W 11 13 6 7 1019.6 - 0.0
25/03:00am 16.4 16.0 14.0 86 1.4 W 9 13 5 7 1019.7 - 0.0
25/02:45am 17.2 17.0 14.6 85 1.5 W 9 13 5 7 1019.7 - 0.0
25/02:30am 17.5 17.2 15.4 87 1.2 WNW 11 15 6 8 1019.8 - 0.0
25/02:15am 16.4 15.8 14.5 88 1.1 W 11 13 6 7 1019.9 - 0.0
25/02:00am 16.1 15.7 14.1 88 1.1 W 9 11 5 6 1020.1 - 0.0
25/01:45am 16.2 16.1 14.0 87 1.3 W 7 9 4 5 1020.3 - 0.0
25/01:30am 17.0 17.3 15.0 88 1.2 W 7 11 4 6 1020.6 - 0.0
25/01:15am 16.3 16.4 14.5 89 1.0 W 7 11 4 6 1020.7 - 0.0
25/01:00am 15.8 15.7 13.8 88 1.1 WNW 7 7 4 4 1020.8 - 0.0
25/12:45am 16.0 15.5 13.9 87 1.2 NW 9 11 5 6 1020.9 - 0.0
25/12:30am 16.3 15.8 13.9 86 1.4 NNW 9 11 5 6 1021.0 - 0.0
25/12:15am 16.8 16.0 14.0 83 1.6 NNW 11 13 6 7 1021.1 - 0.0
25/12:00am 17.6 17.0 14.7 83 1.7 NNW 11 15 6 8 1021.3 - 0.0
 
Date/Time
EST
Temp
°C
App
Temp
°C
Dew
Point
°C
Rel
Hum
%
Delta-T
°C
Wind Press
QNH
hPa
Press
MSL
hPa
Rain since
9am
mm
Dir  Spd
km/h
Gust
km/h
Spd
kts
Gust
kts
24/11:45pm 17.8 16.9 14.8 82 1.7 NNW 13 15 7 8 1021.3 - 0.0
24/11:30pm 18.1 16.8 14.8 81 1.9 NNW 15 17 8 9 1021.5 - 0.0
24/11:15pm 18.4 17.6 15.0 80 2.0 NW 13 15 7 8 1021.7 - 0.0
24/11:00pm 18.6 17.8 15.1 80 2.1 NW 13 15 7 8 1021.8 - 0.0
24/10:45pm 18.5 17.8 15.3 81 1.9 WNW 13 13 7 7 1022.0 - 0.0
24/10:30pm 17.8 17.3 15.0 84 1.6 NW 11 13 6 7 1022.2 - 0.0
24/10:15pm 17.6 17.0 14.7 83 1.7 NW 11 13 6 7 1022.2 - 0.0
24/10:00pm 17.8 17.3 14.9 83 1.7 NW 11 13 6 7 1022.4 - 0.0
24/09:45pm 17.9 17.4 15.0 83 1.7 NNW 11 13 6 7 1022.5 - 0.0
24/09:30pm 17.7 17.2 14.8 83 1.7 NNW 11 15 6 8 1022.6 - 0.0
24/09:15pm 17.9 17.3 14.7 81 1.9 NNW 11 15 6 8 1022.7 - 0.0
24/09:00pm 18.1 18.3 14.8 81 1.9 N 7 15 4 8 1022.6 - 0.0
24/08:45pm 18.4 18.3 14.9 80 2.0 N 9 13 5 7 1022.6 - 0.0
24/08:30pm 18.7 18.6 14.9 78 2.2 - 9 13 5 7 1022.6 - 0.0
24/08:15pm 18.8 18.3 14.9 78 2.3 - 11 15 6 8 1022.5 - 0.0
24/08:00pm 18.9 18.4 14.8 77 2.4 - 11 15 6 8 1022.4 - 0.0
24/07:45pm 19.2 18.7 14.9 76 2.5 N 11 15 6 8 1022.4 - 0.0
24/07:30pm 19.4 18.5 14.9 75 2.6 N 13 19 7 10 1022.3 - 0.0
24/07:15pm 19.5 18.6 14.8 74 2.8 N 13 19 7 10 1022.2 - 0.0
24/07:00pm 19.6 18.6 14.7 73 2.9 NNE 13 19 7 10 1022.1 - 0.0
24/06:45pm 19.9 18.9 14.6 71 3.1 NNE 13 19 7 10 1021.9 - 0.0
24/06:30pm 20.2 19.2 14.7 70 3.2 NNE 13 20 7 11 1021.9 - 0.0
24/06:15pm 20.3 19.4 14.8 70 3.2 NNE 13 20 7 11 1021.7 - 0.0
24/06:00pm 20.6 19.7 14.8 69 3.4 NNE 13 19 7 10 1021.5 - 0.0
24/05:45pm 21.0 20.1 14.9 68 3.6 NNE 13 19 7 10 1021.3 - 0.0
24/05:30pm 21.4 20.2 15.0 67 3.8 NNE 15 20 8 11 1021.1 - 0.0
24/05:15pm 21.7 20.1 15.1 66 3.9 NNE 17 24 9 13 1021.0 - 0.0
24/05:00pm 22.2 20.6 15.0 63 4.3 NE 17 24 9 13 1021.1 - 0.0
24/04:45pm 22.9 21.7 15.1 61 4.7 NNE 15 24 8 13 1021.1 - 0.0
24/04:30pm 23.4 21.4 15.0 59 5.0 NNE 19 28 10 15 1021.0 - 0.0
24/04:15pm 24.0 23.2 15.1 57 5.4 NE 13 20 7 11 1021.0 - 0.0
24/04:00pm 24.1 23.5 14.6 55 5.7 NE 11 19 6 10 1021.0 - 0.0
24/03:45pm 24.6 24.4 13.5 50 6.5 NE 7 15 4 8 1021.1 - 0.0
24/03:30pm 24.8 23.6 12.7 47 7.0 NNE 11 19 6 10 1021.2 - 0.0
24/03:15pm 24.9 23.8 13.0 47 6.9 N 11 19 6 10 1021.3 - 0.0
24/03:00pm 24.7 23.9 12.8 47 6.9 N 9 15 5 8 1021.5 - 0.0
24/02:45pm 24.8 24.6 13.6 49 6.6 N 7 15 4 8 1021.6 - 0.0
24/02:30pm 24.6 24.1 13.7 50 6.4 - 9 17 5 9 1021.8 - 0.0
24/02:15pm 24.5 23.5 13.5 50 6.5 N 11 20 6 11 1022.0 - 0.0
24/02:00pm 24.3 24.1 13.6 51 6.3 N 7 13 4 7 1022.1 - 0.0
24/01:45pm 24.4 23.8 13.6 51 6.4 N 9 20 5 11 1022.4 - 0.0
24/01:30pm 24.0 23.7 14.4 55 5.7 NNE 9 19 5 10 1022.5 - 0.0
24/01:15pm 24.1 23.5 14.7 55 5.6 NNW 11 20 6 11 1022.8 - 0.0
24/01:00pm 23.8 23.3 14.8 57 5.4 N 11 20 6 11 1023.1 - 0.0
24/12:45pm 23.8 22.7 14.4 55 5.6 NNW 13 20 7 11 1023.3 - 0.0
24/12:30pm 23.4 22.8 14.6 57 5.2 NNW 11 19 6 10 1023.6 - 0.0
24/12:15pm 23.6 23.4 14.8 57 5.3 N 9 19 5 10 1023.8 - 0.0
24/12:00pm 23.3 22.9 15.1 60 4.9 NNW 11 22 6 12 1024.1 - 0.0
24/11:45am 23.2 22.8 15.2 60 4.8 NNW 11 22 6 12 1024.5 - 0.0
24/11:30am 22.6 22.4 15.8 65 4.1 NW 11 19 6 10 1024.7 - 0.0
24/11:15am 22.4 21.9 15.9 66 3.9 NNW 13 19 7 10 1024.9 - 0.0
24/11:00am 22.6 22.7 16.6 69 3.7 NNW 11 19 6 10 1025.1 - 0.0
24/10:45am 21.7 21.4 16.5 72 3.2 NW 13 20 7 11 1025.4 - 0.0
24/10:30am 21.9 22.2 16.9 73 3.1 NW 11 20 6 11 1025.5 - 0.0
24/10:15am 21.9 22.4 17.4 75 2.8 NW 11 20 6 11 1025.4 - 0.0
24/10:00am 21.7 21.7 17.3 76 2.7 NW 13 20 7 11 1025.3 - 0.0
24/09:45am 21.7 22.6 17.6 77 2.5 NW 9 19 5 10 1025.3 - 0.0
24/09:30am 21.4 22.3 17.6 79 2.4 NW 9 17 5 9 1025.4 - 0.0
24/09:15am 21.1 22.5 17.7 81 2.1 NW 7 15 4 8 1025.4 - 0.0
24/09:00am 20.9 22.6 18.5 86 1.5 NW 7 11 4 6 1025.4 - 0.0
24/08:45am 19.9 22.2 18.6 92 0.8 WSW 4 11 2 6 1025.3 - 0.0
24/08:30am 18.4 20.2 17.3 93 0.7 SW 4 6 2 3 1025.3 - 0.0
24/08:15am 17.4 18.4 16.3 93 0.7 W 6 7 3 4 1025.3 - 0.0
24/08:00am 16.4 17.0 15.4 94 0.6 W 6 7 3 4 1025.1 - 0.0
24/07:45am 15.6 15.9 14.6 94 0.6 W 6 7 3 4 1025.1 - 0.0
24/07:30am 15.6 15.9 14.6 94 0.6 W 6 9 3 5 1025.0 - 0.0
24/07:15am 15.0 14.9 14.0 94 0.6 W 7 9 4 5 1025.0 - 0.0
24/07:00am 14.4 14.1 13.4 94 0.6 W 7 9 4 5 1025.0 - 0.0
24/06:45am 14.3 14.0 13.2 93 0.6 WSW 7 9 4 5 1025.0 - 0.0
24/06:30am 14.1 13.7 13.1 94 0.6 WSW 7 9 4 5 1024.8 - 0.0
24/06:15am 14.4 14.1 13.3 93 0.6 W 7 9 4 5 1024.7 - 0.0
24/06:00am 14.4 14.1 13.3 93 0.6 W 7 9 4 5 1024.7 - 0.0
24/05:45am 14.6 14.4 13.6 94 0.6 WNW 7 11 4 6 1024.6 - 0.0
24/05:30am 14.8 14.8 13.7 93 0.6 WNW 6 7 3 4 1024.6 - 0.0
24/05:15am 14.9 15.0 13.8 93 0.6 NW 6 6 3 3 1024.5 - 0.0
24/05:00am 15.0 15.1 13.9 93 0.6 NNW 6 6 3 3 1024.5 - 0.0
24/04:45am 15.0 15.1 13.9 93 0.6 NNW 6 6 3 3 1024.5 - 0.0
24/04:30am 15.3 15.9 14.2 93 0.6 N 4 7 2 4 1024.5 - 0.0
24/04:15am 15.6 16.3 14.5 93 0.6 - 4 7 2 4 1024.5 - 0.0
24/04:00am 15.8 16.0 14.7 93 0.6 N 7 7 4 4 1024.4 - 0.0
24/03:45am 15.8 16.2 14.7 93 0.6 NNE 6 7 3 4 1024.4 - 0.0
24/03:30am 15.7 16.0 14.6 93 0.6 NE 6 7 3 4 1024.4 - 0.0
24/03:15am 15.9 16.3 14.7 93 0.7 ENE 6 7 3 4 1024.5 - 0.0
24/03:00am 15.9 16.3 14.8 93 0.6 ENE 6 7 3 4 1024.6 - 0.0
24/02:45am 16.3 16.7 15.2 93 0.6 NE 7 7 4 4 1024.8 - 0.0
24/02:30am 16.3 16.7 15.2 93 0.6 ENE 7 11 4 6 1025.0 - 0.0
24/02:15am 16.6 17.0 15.4 93 0.7 ENE 7 9 4 5 1025.2 - 0.0
24/02:00am 16.6 17.2 15.4 93 0.7 ENE 6 9 3 5 1025.3 - 0.0
24/01:45am 16.7 17.8 15.5 93 0.7 E 4 6 2 3 1025.5 - 0.0
24/01:30am 16.9 18.4 15.6 92 0.8 E 2 4 1 2 1025.7 - 0.0
24/01:15am 17.1 18.3 15.8 92 0.8 NE 4 6 2 3 1025.9 - 0.0
24/01:00am 17.1 18.3 15.9 93 0.7 ENE 4 7 2 4 1025.9 - 0.0
24/12:45am 17.2 18.0 15.9 92 0.8 ENE 6 11 3 6 1025.9 - 0.0
24/12:30am 17.4 18.1 16.1 92 0.8 ENE 7 13 4 7 1026.0 - 0.0
24/12:15am 17.4 18.3 16.0 91 0.8 NE 6 9 3 5 1026.0 - 0.0
24/12:00am 17.8 18.6 16.4 91 0.8 NE 7 11 4 6 1026.1 - 0.0
 
Date/Time
EST
Temp
°C
App
Temp
°C
Dew
Point
°C
Rel
Hum
%
Delta-T
°C
Wind Press
QNH
hPa
Press
MSL
hPa
Rain since
9am
mm
Dir  Spd
km/h
Gust
km/h
Spd
kts
Gust
kts
23/11:45pm 18.0 18.9 16.6 91 0.8 NE 7 11 4 6 1026.2 - 0.0
23/11:30pm 18.1 19.2 16.7 91 0.8 NE 6 7 3 4 1026.3 - 0.0
23/11:15pm 18.1 19.1 16.8 92 0.8 NE 7 7 4 4 1026.4 - 0.0
23/11:00pm 18.4 19.1 17.0 91 0.8 NE 9 11 5 6 1026.5 - 0.0
23/10:45pm 18.6 19.4 17.3 92 0.8 NE 9 11 5 6 1026.7 - 0.0
23/10:30pm 18.5 19.3 17.2 92 0.8 ENE 9 11 5 6 1026.8 - 0.0
23/10:15pm 18.6 19.4 17.3 92 0.8 ENE 9 11 5 6 1026.9 - 0.0
23/10:00pm 18.8 19.7 17.5 92 0.8 ENE 9 11 5 6 1027.1 - 0.0
23/09:45pm 19.1 20.1 17.8 92 0.8 E 9 11 5 6 1027.1 - 0.0
23/09:30pm 19.1 20.2 17.9 93 0.7 E 9 19 5 10 1027.2 - 0.0
23/09:15pm 18.9 19.8 17.6 92 0.8 ESE 9 13 5 7 1027.2 - 0.0
23/09:00pm 19.0 20.0 17.7 92 0.8 SE 9 11 5 6 1027.1 - 0.0
23/08:45pm 19.0 19.6 17.6 92 0.9 ESE 11 15 6 8 1027.1 - 0.0
23/08:30pm 19.2 19.9 17.9 92 0.8 ESE 11 15 6 8 1027.1 - 0.0
23/08:15pm 19.3 20.0 17.9 92 0.9 SE 11 15 6 8 1027.0 - 0.0
23/08:00pm 19.2 19.8 17.8 92 0.9 ESE 11 15 6 8 1027.0 - 0.0
23/07:45pm 19.2 19.8 17.7 91 0.9 ESE 11 15 6 8 1026.9 - 0.0
23/07:30pm 19.1 19.7 17.6 91 0.9 ESE 11 13 6 7 1026.8 - 0.0
23/07:15pm 19.3 20.2 17.6 90 1.0 ESE 9 15 5 8 1026.6 - 0.0
23/07:00pm 19.4 20.0 17.7 90 1.0 SE 11 17 6 9 1026.5 - 0.0
23/06:45pm 19.5 20.5 17.7 89 1.1 SE 9 13 5 7 1026.5 - 0.0
23/06:30pm 19.7 20.0 17.8 89 1.2 SE 13 19 7 10 1026.3 - 0.0
23/06:15pm 19.8 20.4 17.8 88 1.2 ESE 11 19 6 10 1026.3 - 0.0
23/06:00pm 20.0 20.6 17.8 87 1.4 ESE 11 15 6 8 1026.1 - 0.0
23/05:45pm 20.1 21.1 17.8 86 1.4 ESE 9 15 5 8 1025.9 - 0.0
23/05:30pm 20.2 20.8 17.7 85 1.5 SE 11 19 6 10 1025.7 - 0.0
23/05:15pm 20.4 20.6 17.7 84 1.7 SE 13 19 7 10 1025.4 - 0.0
23/05:00pm 20.6 20.4 17.7 83 1.8 SE 15 20 8 11 1025.2 - 0.0
23/04:45pm 21.0 21.3 17.8 82 2.0 SE 13 19 7 10 1025.2 - 0.0
23/04:30pm 21.2 21.5 17.8 81 2.1 SE 13 19 7 10 1025.2 - 0.0
23/04:15pm 21.2 20.6 17.6 80 2.2 ESE 17 22 9 12 1025.0 - 0.0
23/04:00pm 21.3 20.8 17.7 80 2.2 ESE 17 20 9 11 1025.1 - 0.0
23/03:45pm 21.4 21.6 17.7 79 2.3 ESE 13 19 7 10 1025.2 - 0.0
23/03:30pm 21.8 22.4 17.6 77 2.6 ESE 11 17 6 9 1025.2 - 0.0
23/03:15pm 22.1 23.1 17.7 76 2.7 E 9 15 5 8 1025.2 - 0.0
23/03:00pm 22.1 22.3 17.6 75 2.8 ESE 13 20 7 11 1025.1 - 0.0
23/02:45pm 23.0 23.6 17.8 72 3.3 ESE 11 20 6 11 1025.0 - 0.0
23/02:30pm 23.1 23.3 17.7 71 3.4 E 13 19 7 10 1025.0 - 0.0
23/02:15pm 23.1 23.3 17.7 71 3.4 E 13 20 7 11 1025.1 - 0.0
23/02:00pm 23.3 23.5 17.6 70 3.6 ESE 13 19 7 10 1025.1 - 0.0
23/01:45pm 23.3 23.5 17.6 70 3.6 E 13 20 7 11 1025.1 - 0.0
23/01:30pm 24.0 24.8 18.1 69 3.7 E 11 19 6 10 1025.1 - 0.0
23/01:15pm 23.6 24.2 17.7 69 3.7 E 11 17 6 9 1025.2 - 0.0
23/01:00pm 23.6 24.3 17.9 70 3.6 E 11 19 6 10 1025.5 - 0.0
23/12:45pm 23.0 23.7 17.9 73 3.2 E 11 19 6 10 1025.6 - 0.0
23/12:30pm 23.1 23.7 17.8 72 3.3 ESE 11 15 6 8 1025.9 - 0.0
23/12:15pm 22.9 23.4 18.4 76 2.8 ESE 13 20 7 11 1026.2 - 0.0
23/12:00pm 22.6 22.9 18.0 75 2.9 ESE 13 20 7 11 1026.4 - 0.0
23/11:45am 22.9 23.5 17.8 73 3.2 E 11 15 6 8 1026.6 - 0.0
23/11:30am 23.1 24.7 18.2 74 3.1 ENE 7 15 4 8 1026.7 - 0.0
23/11:15am 23.0 24.4 17.9 73 3.2 E 7 15 4 8 1026.8 - 0.0
23/11:00am 23.4 25.0 18.2 72 3.3 E 7 11 4 6 1026.9 - 0.0
23/10:45am 23.2 24.7 18.0 72 3.3 ENE 7 13 4 7 1027.1 - 0.0
23/10:30am 22.6 24.2 18.2 76 2.8 NE 7 11 4 6 1027.3 - 0.0
23/10:15am 22.6 24.2 18.3 76 2.7 ENE 7 11 4 6 1027.3 - 0.0
23/10:00am 21.9 23.7 18.4 80 2.2 SE 6 9 3 5 1027.3 - 0.0
23/09:45am 21.6 23.2 18.3 81 2.1 SE 7 13 4 7 1027.3 - 0.0
23/09:30am 21.1 22.6 18.1 83 1.9 SE 7 11 4 6 1027.4 - 0.0
23/09:15am 21.0 22.7 18.1 83 1.8 SE 6 9 3 5 1027.4 - 0.0
23/09:00am 20.5 21.9 17.9 85 1.6 ESE 7 9 4 5 1027.5 - 0.2
23/08:45am 20.0 21.4 17.8 87 1.4 SE 7 11 4 6 1027.5 - 0.2
23/08:30am 19.6 21.0 17.7 89 1.2 SSE 7 11 4 6 1027.5 - 0.2
23/08:15am 19.3 20.3 17.7 90 1.0 SE 9 15 5 8 1027.4 - 0.2
23/08:00am 18.7 19.1 17.3 91 0.9 SSE 11 15 6 8 1027.3 - 0.2
23/07:45am 18.2 18.5 17.0 93 0.7 SSE 11 15 6 8 1027.1 - 0.2
23/07:30am 17.8 18.0 16.7 93 0.7 SSE 11 15 6 8 1027.1 - 0.2
23/07:15am 17.6 17.7 16.4 93 0.7 SSE 11 15 6 8 1027.0 - 0.2
23/07:00am 17.4 17.4 16.3 93 0.7 SSE 11 13 6 7 1026.9 - 0.2
23/06:45am 17.5 17.6 16.4 93 0.7 SSE 11 15 6 8 1026.8 - 0.2

Latest Capital City Observations: Canberra | Sydney | Melbourne | Brisbane | Adelaide | Perth | Hobart | Darwin

Other formats

Comma delimited format used in spreadsheet applications
http://www.bom.gov.au/fwo/IDN60901/IDN60901.95757.axf

JavaScript Object Notation format (JSON) in row-major order
http://www.bom.gov.au/fwo/IDN60901/IDN60901.95757.json

Data quality

Most of these data are generated automatically and are frequently updated. Quality checks on data are not normally performed. It is possible for incorrect values to appear. Refer to information at About Latest Weather Observations and please check the disclaimer before using these data.